Time;durP1;ratioP1;P1;durP2;ratioP2;P2;SDS_P1;SDS_P2;PMS_P1;PMS_P2;Temp;Humidity;BMP_temperature;BMP_pressure;BME280_temperature;BME280_humidity;BME280_pressure;Samples;Min_cycle;Max_cycle;Signal;HPM_P1;HPM_P2
2022/07/17 00:00:13;;;;;;;4.70;2.83;;;;;;;12.10;94.04;100350.53;4977112;28;20038;-88
2022/07/17 00:02:38;;;;;;;4.45;3.10;;;;;;;12.05;94.21;100357.66;4977510;28;20073;-89
2022/07/17 00:05:04;;;;;;;5.60;3.33;;;;;;;12.04;94.66;100358.59;4977561;28;20054;-89
2022/07/17 00:07:30;;;;;;;4.40;3.00;;;;;;;12.02;94.76;100360.44;4977562;28;20654;-89
2022/07/17 00:09:55;;;;;;;7.05;3.08;;;;;;;11.99;95.00;100366.63;4994883;28;20397;-89
2022/07/17 00:12:21;;;;;;;4.05;3.20;;;;;;;11.98;95.38;100367.53;4977449;28;20097;-87
2022/07/17 00:14:46;;;;;;;6.15;3.20;;;;;;;11.91;96.33;100360.84;4977309;28;20018;-88
2022/07/17 00:17:12;;;;;;;4.35;2.78;;;;;;;11.89;96.34;100365.31;4972409;28;20265;-88
2022/07/17 00:19:37;;;;;;;5.60;3.00;;;;;;;11.84;96.58;100362.88;4956815;28;20031;-90
2022/07/17 00:22:03;;;;;;;5.00;3.00;;;;;;;11.79;96.77;100361.31;4972233;28;20109;-88
2022/07/17 00:24:29;;;;;;;3.95;3.42;;;;;;;11.76;97.69;100371.91;4972800;28;20062;-87
2022/07/17 00:26:54;;;;;;;4.85;3.17;;;;;;;11.72;98.80;100366.78;4972526;28;20547;-90
2022/07/17 00:29:20;;;;;;;5.72;3.10;;;;;;;11.69;98.35;100368.66;4952827;29;20545;-87
2022/07/17 00:31:46;;;;;;;6.30;3.22;;;;;;;11.69;98.34;100364.28;4952872;29;20043;-87
2022/07/17 00:34:11;;;;;;;6.72;3.30;;;;;;;11.74;98.54;100377.16;4952652;28;20039;-87
2022/07/17 00:36:37;;;;;;;4.72;3.03;;;;;;;11.64;98.84;100371.47;4952886;29;20103;-87
2022/07/17 00:39:03;;;;;;;8.60;3.28;;;;;;;11.63;99.18;100384.53;4952528;29;20047;-88
2022/07/17 00:41:28;;;;;;;3.72;2.80;;;;;;;11.57;99.67;100390.03;4952833;29;20431;-88
2022/07/17 00:43:54;;;;;;;6.40;2.95;;;;;;;11.54;99.78;100390.97;4952738;29;20046;-86
2022/07/17 00:46:20;;;;;;;3.90;3.20;;;;;;;11.45;99.54;100378.28;4936349;29;20035;-88
2022/07/17 00:48:46;;;;;;;4.22;2.72;;;;;;;11.46;99.82;100383.47;4952575;29;20039;-87
2022/07/17 00:51:11;;;;;;;3.40;2.50;;;;;;;11.43;98.92;100380.13;4936367;29;20166;-86
2022/07/17 00:53:37;;;;;;;4.43;2.83;;;;;;;11.32;99.03;100369.25;4952688;29;20070;-85
2022/07/17 00:56:04;;;;;;;4.35;2.70;;;;;;;11.26;99.40;100365.13;4952320;29;20051;-86
2022/07/17 00:58:33;;;;;;;4.25;2.70;;;;;;;11.31;99.63;100381.44;4952803;29;20039;-86
2022/07/17 01:00:58;;;;;;;5.60;2.90;;;;;;;11.23;99.64;100376.50;4971458;28;20042;-85
2022/07/17 01:03:25;;;;;;;6.10;2.85;;;;;;;11.26;99.53;100387.75;4976333;28;20138;-86
2022/07/17 01:05:51;;;;;;;2.88;2.55;;;;;;;11.07;100.00;100364.09;4993705;28;20037;-86
2022/07/17 01:08:17;;;;;;;4.38;2.70;;;;;;;11.20;100.00;100387.03;4993394;28;20041;-85
2022/07/17 01:10:43;;;;;;;6.32;3.08;;;;;;;11.20;100.00;100397.47;4976015;28;20038;-86
2022/07/17 01:13:08;;;;;;;4.22;2.63;;;;;;;11.19;100.00;100405.38;4975809;28;20038;-85
2022/07/17 01:15:37;;;;;;;7.25;2.80;;;;;;;11.13;100.00;100403.00;4975756;28;20030;-85
2022/07/17 01:18:08;;;;;;;5.90;2.85;;;;;;;11.12;100.00;100403.88;4975615;28;20064;-86
2022/07/17 01:20:34;;;;;;;;;;;;;;;11.10;100.00;100409.16;4993946;28;20069;-86
2022/07/17 01:22:59;;;;;;;4.07;2.85;;;;;;;10.96;100.00;100391.44;4975767;28;20019;-86
2022/07/17 01:25:25;;;;;;;5.45;2.70;;;;;;;10.90;100.00;100377.75;4975999;28;20125;-85
2022/07/17 01:27:50;;;;;;;4.05;2.55;;;;;;;10.99;100.00;100401.72;4975742;28;20030;-85
2022/07/17 01:30:16;;;;;;;3.47;2.67;;;;;;;10.85;100.00;100387.50;4975654;28;20026;-86
2022/07/17 01:32:43;;;;;;;4.38;2.70;;;;;;;10.98;100.00;100409.59;4975259;28;20083;-85
2022/07/17 01:35:10;;;;;;;4.07;2.97;;;;;;;10.95;100.00;100410.56;4975417;28;20528;-84
2022/07/17 01:37:38;;;;;;;3.38;2.95;;;;;;;10.83;100.00;100402.31;4971036;28;20129;-84
2022/07/17 01:40:04;;;;;;;5.15;2.97;;;;;;;10.87;100.00;100406.53;4971196;28;20057;-84
2022/07/17 01:42:30;;;;;;;3.97;2.92;;;;;;;10.84;100.00;100396.22;4971006;28;20042;-84
2022/07/17 01:44:56;;;;;;;3.40;2.67;;;;;;;10.89;100.00;100412.53;4971111;28;20046;-84
2022/07/17 01:47:22;;;;;;;5.05;2.60;;;;;;;10.89;100.00;100413.41;4970797;28;20038;-84
2022/07/17 01:49:53;;;;;;;2.83;2.45;;;;;;;10.85;100.00;100419.63;4954985;28;20035;-84
2022/07/17 01:52:19;;;;;;;4.28;2.65;;;;;;;10.73;100.00;100401.81;4970734;28;20406;-84
2022/07/17 01:54:44;;;;;;;4.22;2.65;;;;;;;10.74;100.00;100414.81;4970736;28;20394;-84
2022/07/17 01:57:11;;;;;;;2.95;2.33;;;;;;;10.58;100.00;100384.13;4970814;28;20035;-86
2022/07/17 01:59:37;;;;;;;3.97;2.58;;;;;;;10.74;100.00;100411.31;4970627;28;20058;-84
2022/07/17 02:02:04;;;;;;;3.70;2.65;;;;;;;10.66;100.00;100397.72;4970369;28;20592;-86
2022/07/17 02:04:30;;;;;;;3.92;2.67;;;;;;;10.64;100.00;100395.16;4970798;28;20070;-83
2022/07/17 02:06:55;;;;;;;4.25;2.88;;;;;;;10.65;100.00;100396.00;4970537;28;20054;-85
2022/07/17 02:09:22;;;;;;;2.97;2.67;;;;;;;10.56;100.00;100380.72;4971282;28;20116;-85
2022/07/17 02:11:48;;;;;;;4.22;2.75;;;;;;;10.53;100.00;100386.00;4992436;28;20386;-85
2022/07/17 02:14:13;;;;;;;6.50;2.78;;;;;;;10.60;100.00;100408.34;4975062;28;20422;-85
2022/07/17 02:16:38;;;;;;;4.25;2.83;;;;;;;10.57;100.00;100413.66;4992603;28;20027;-85
2022/07/17 02:19:04;;;;;;;3.80;2.63;;;;;;;10.54;100.00;100417.25;4974753;28;20490;-85
2022/07/17 02:21:30;;;;;;;5.55;2.85;;;;;;;10.52;100.00;100416.44;4992885;28;20467;-85
2022/07/17 02:23:55;;;;;;;3.95;2.65;;;;;;;10.48;100.00;100415.69;4974945;28;20031;-84
2022/07/17 02:26:21;;;;;;;4.15;2.85;;;;;;;10.48;100.00;100414.81;4974789;28;20022;-85
2022/07/17 02:28:46;;;;;;;4.40;3.03;;;;;;;10.50;100.00;100418.25;4992432;28;20462;-85
2022/07/17 02:31:11;;;;;;;3.60;2.50;;;;;;;10.48;100.00;100412.22;4974994;28;20586;-85
2022/07/17 02:33:37;;;;;;;2.78;2.40;;;;;;;10.47;100.00;100416.59;4975059;28;20035;-85
2022/07/17 02:36:02;;;;;;;5.25;2.28;;;;;;;10.44;100.00;100416.69;4974825;28;20058;-86
2022/07/17 02:38:28;;;;;;;3.63;2.55;;;;;;;10.30;100.00;100389.41;4974635;28;20023;-86
2022/07/17 02:40:53;;;;;;;3.03;2.50;;;;;;;10.37;100.00;100415.22;4992376;28;20022;-86
2022/07/17 02:43:18;;;;;;;5.57;2.63;;;;;;;10.26;100.00;100406.88;4975133;28;20026;-85
2022/07/17 02:45:44;;;;;;;7.47;2.83;;;;;;;10.22;100.00;100402.66;4996157;28;20050;-86
2022/07/17 02:48:09;;;;;;;4.70;2.80;;;;;;;10.30;100.00;100425.88;4978635;28;20026;-87
2022/07/17 02:50:35;;;;;;;4.70;2.63;;;;;;;10.29;100.00;100418.97;4978685;28;20482;-87
2022/07/17 02:53:00;;;;;;;3.30;2.42;;;;;;;10.26;100.00;100422.50;4978670;28;20030;-86
2022/07/17 02:55:26;;;;;;;3.70;2.30;;;;;;;10.20;100.00;100409.69;4978278;28;20019;-87
2022/07/17 02:57:51;;;;;;;4.82;2.50;;;;;;;10.24;100.00;100421.69;4978763;28;20556;-87
2022/07/17 03:00:18;;;;;;;6.43;3.17;;;;;;;10.10;100.00;100401.28;4978334;28;20054;-87
2022/07/17 03:02:45;;;;;;;3.35;2.70;;;;;;;10.18;100.00;100429.69;4973842;28;20145;-87
2022/07/17 03:05:11;;;;;;;3.10;2.45;;;;;;;10.07;100.00;100411.84;4973534;28;20039;-87
2022/07/17 03:07:37;;;;;;;3.00;2.70;;;;;;;10.11;100.00;100423.84;4973883;28;20042;-86
2022/07/17 03:10:03;;;;;;;5.07;3.10;;;;;;;10.08;100.00;100423.94;4973600;28;20042;-87
2022/07/17 03:12:29;;;;;;;4.55;2.80;;;;;;;10.03;100.00;100425.84;4973899;28;20051;-87
2022/07/17 03:14:55;;;;;;;5.03;2.97;;;;;;;10.02;100.00;100416.31;4973690;28;20126;-86
2022/07/17 03:17:20;;;;;;;3.60;2.60;;;;;;;10.04;100.00;100429.28;4973202;28;20051;-86
2022/07/17 03:19:45;;;;;;;4.00;2.75;;;;;;;10.08;100.00;100433.50;4957609;28;20055;-86
2022/07/17 03:22:11;;;;;;;3.30;2.55;;;;;;;10.08;100.00;100433.50;4957299;28;20589;-85
2022/07/17 03:24:36;;;;;;;3.90;2.95;;;;;;;9.99;100.00;100422.47;4957304;28;20035;-85
2022/07/17 03:27:02;;;;;;;4.32;2.60;;;;;;;10.09;100.00;100441.25;4957341;28;20041;-86
2022/07/17 03:29:27;;;;;;;4.28;2.63;;;;;;;9.97;100.00;100429.47;4957008;28;20035;-85
2022/07/17 03:31:52;;;;;;;3.85;2.35;;;;;;;10.07;100.00;100442.19;4957324;28;20049;-86
2022/07/17 03:34:18;;;;;;;4.22;2.70;;;;;;;10.07;100.00;100448.28;4971255;28;20066;-86
2022/07/17 03:36:43;;;;;;;7.13;3.13;;;;;;;10.08;100.00;100449.13;4962420;28;20457;-85
2022/07/17 03:39:09;;;;;;;3.83;2.97;;;;;;;10.09;100.00;100451.66;4956856;28;20027;-85
2022/07/17 03:41:34;;;;;;;3.25;2.60;;;;;;;10.11;100.00;100452.47;4971949;28;20038;-86
2022/07/17 03:44:00;;;;;;;7.10;3.30;;;;;;;10.18;100.00;100463.53;4977787;28;20478;-86
2022/07/17 03:46:25;;;;;;;5.78;3.08;;;;;;;10.15;100.00;100451.44;4977589;28;20094;-86
2022/07/17 03:48:51;;;;;;;6.22;2.88;;;;;;;10.18;100.00;100453.97;4993890;28;20534;-87
2022/07/17 03:51:17;;;;;;;6.03;2.70;;;;;;;10.22;100.00;100455.56;4977462;28;20030;-85
2022/07/17 03:53:42;;;;;;;4.35;2.90;;;;;;;10.29;100.00;100464.06;4994954;28;20064;-85
2022/07/17 03:56:08;;;;;;;4.07;2.53;;;;;;;10.32;100.00;100455.28;4976985;28;20125;-86
2022/07/17 03:58:33;;;;;;;2.72;2.45;;;;;;;10.38;100.00;100453.34;4977432;28;20026;-85
2022/07/17 04:01:00;;;;;;;3.10;2.60;;;;;;;10.47;100.00;100460.00;4977495;28;20058;-83
2022/07/17 04:03:25;;;;;;;4.07;2.90;;;;;;;10.57;100.00;100457.94;4977048;28;20105;-84
2022/07/17 04:05:51;;;;;;;4.72;3.75;;;;;;;10.63;100.00;100449.94;4977176;28;20026;-84
2022/07/17 04:08:18;;;;;;;8.43;5.40;;;;;;;10.80;100.00;100460.63;4994371;28;20434;-86
2022/07/17 04:10:43;;;;;;;9.30;6.03;;;;;;;10.92;100.00;100448.94;4977311;28;20026;-86
2022/07/17 04:13:09;;;;;;;8.13;5.40;;;;;;;11.19;100.00;100455.75;4977371;28;20497;-86
2022/07/17 04:15:49;;;;;;;6.53;5.50;;;;;;;11.61;100.00;100441.19;4976841;28;20096;-88
2022/07/17 04:18:22;;;;;;;5.53;4.80;;;;;;;12.29;100.00;100452.44;4976946;28;20050;-86
2022/07/17 04:20:48;;;;;;;5.18;4.68;;;;;;;13.22;97.71;100449.31;4994466;28;20026;-85
2022/07/17 04:23:14;;;;;;;5.82;3.90;;;;;;;14.27;89.75;100450.50;4976843;28;20497;-87
2022/07/17 04:25:40;;;;;;;5.55;3.30;;;;;;;15.00;84.06;100439.88;4977013;28;20058;-87
2022/07/17 04:28:05;;;;;;;2.70;2.30;;;;;;;15.23;80.13;100450.88;4976958;28;20046;-87
2022/07/17 04:30:31;;;;;;;3.40;2.65;;;;;;;15.45;78.01;100455.81;4976679;28;20603;-87
2022/07/17 04:32:57;;;;;;;7.93;2.75;;;;;;;15.64;75.01;100453.06;4976832;28;20030;-86
2022/07/17 04:35:22;;;;;;;6.22;3.15;;;;;;;15.75;74.06;100447.22;4976197;28;20174;-87
2022/07/17 04:37:47;;;;;;;4.65;2.30;;;;;;;15.91;74.02;100449.84;4976894;28;20121;-87
2022/07/17 04:40:13;;;;;;;5.57;2.47;;;;;;;16.02;72.56;100442.22;4976673;28;20686;-87
2022/07/17 04:42:38;;;;;;;4.22;2.35;;;;;;;16.18;72.87;100444.81;4976718;28;20030;-88
2022/07/17 04:45:05;;;;;;;2.92;1.90;;;;;;;16.49;71.92;100453.56;4976547;28;20117;-87
2022/07/17 04:47:31;;;;;;;9.20;2.47;;;;;;;16.94;70.73;100450.88;4971627;28;20560;-87
2022/07/17 04:49:56;;;;;;;4.38;2.20;;;;;;;17.17;69.36;100452.09;4971846;28;20177;-87
2022/07/17 04:52:22;;;;;;;5.38;2.40;;;;;;;17.44;68.68;100461.88;4971704;28;20137;-88
2022/07/17 04:54:47;;;;;;;3.00;1.90;;;;;;;17.60;68.34;100473.13;4955616;28;20023;-89
2022/07/17 04:57:12;;;;;;;4.90;2.10;;;;;;;17.90;65.75;100478.28;4971591;28;20049;-87
2022/07/17 04:59:38;;;;;;;2.42;1.63;;;;;;;17.99;66.68;100478.63;4971983;28;20034;-88
2022/07/17 05:02:04;;;;;;;4.10;1.80;;;;;;;18.17;66.81;100485.38;4971783;28;20079;-89
2022/07/17 05:04:29;;;;;;;3.95;2.33;;;;;;;18.29;65.79;100479.31;4971589;28;20212;-88
2022/07/17 05:06:55;;;;;;;2.80;1.67;;;;;;;18.50;64.90;100481.44;4971240;28;20484;-87
2022/07/17 05:09:20;;;;;;;4.47;2.20;;;;;;;18.78;64.40;100469.94;4971272;28;20133;-87
2022/07/17 05:11:45;;;;;;;5.78;1.95;;;;;;;19.06;63.91;100471.56;4971711;28;20038;-87
2022/07/17 05:14:11;;;;;;;5.90;2.13;;;;;;;19.36;63.00;100487.06;4971492;28;20066;-86
2022/07/17 05:16:36;;;;;;;3.78;1.75;;;;;;;19.59;62.43;100480.16;4971323;28;20027;-87
2022/07/17 05:19:02;;;;;;;5.30;2.15;;;;;;;19.69;62.02;100481.22;4975338;28;20086;-88
2022/07/17 05:21:27;;;;;;;3.20;1.80;;;;;;;19.64;61.84;100484.19;4975799;28;20030;-87
2022/07/17 05:23:52;;;;;;;5.35;1.80;;;;;;;19.83;60.38;100491.66;4992167;28;20037;-87
2022/07/17 05:26:18;;;;;;;4.05;2.03;;;;;;;20.00;60.26;100503.66;4975775;28;20438;-88
2022/07/17 05:28:43;;;;;;;6.47;2.28;;;;;;;20.61;58.72;100491.25;4975908;28;20154;-87
2022/07/17 05:31:09;;;;;;;4.55;1.80;;;;;;;21.72;55.78;100498.63;4975860;28;20109;-87
2022/07/17 05:33:34;;;;;;;6.20;2.38;;;;;;;22.70;53.16;100509.22;4975436;28;20030;-87
2022/07/17 05:36:00;;;;;;;4.63;2.22;;;;;;;22.52;52.49;100504.47;4975473;28;20056;-87
2022/07/17 05:38:25;;;;;;;3.25;2.00;;;;;;;21.98;53.31;100515.09;4993132;28;20072;-87
2022/07/17 05:40:51;;;;;;;4.72;2.30;;;;;;;21.58;54.25;100511.16;4993416;28;20034;-87
2022/07/17 05:43:16;;;;;;;6.53;2.42;;;;;;;21.38;55.29;100503.94;4975240;28;20037;-87
2022/07/17 05:45:41;;;;;;;5.78;2.50;;;;;;;21.23;55.33;100486.53;4976201;28;20026;-87
2022/07/17 05:48:07;;;;;;;4.15;2.30;;;;;;;21.36;54.83;100508.50;4975381;28;20033;-87
2022/07/17 05:50:33;;;;;;;4.90;2.65;;;;;;;21.31;54.80;100494.75;4992530;28;20113;-87
2022/07/17 05:52:59;;;;;;;5.47;2.40;;;;;;;21.36;55.32;100513.78;4970892;28;20031;-87
2022/07/17 05:55:24;;;;;;;5.97;2.42;;;;;;;21.36;55.13;100511.16;4970533;28;20085;-87
2022/07/17 05:57:50;;;;;;;5.43;2.70;;;;;;;21.41;54.89;100517.78;4971031;28;20035;-87
2022/07/17 06:00:15;;;;;;;6.53;2.42;;;;;;;21.42;55.15;100505.38;4971021;28;20113;-89
2022/07/17 06:02:41;;;;;;;7.43;2.80;;;;;;;21.76;54.41;100530.06;4970952;28;20043;-89
2022/07/17 06:05:07;;;;;;;5.68;2.70;;;;;;;21.98;54.49;100531.84;4955301;28;20498;-89
2022/07/17 06:07:32;;;;;;;5.68;2.92;;;;;;;22.26;53.82;100530.50;4970702;28;20047;-88
2022/07/17 06:09:58;;;;;;;11.18;2.50;;;;;;;22.53;52.85;100542.47;4970734;28;20121;-86
2022/07/17 06:12:24;;;;;;;3.72;2.58;;;;;;;22.81;52.45;100546.34;4931767;29;20036;-87
2022/07/17 06:14:49;;;;;;;7.00;2.40;;;;;;;23.08;52.02;100548.50;4916239;29;20036;-88
2022/07/17 06:17:15;;;;;;;5.80;3.00;;;;;;;23.21;51.63;100535.84;4916078;29;20550;-87
2022/07/17 06:19:40;;;;;;;7.18;2.65;;;;;;;24.09;49.88;100540.59;4920868;29;20048;-88
2022/07/17 06:22:06;;;;;;;6.05;2.95;;;;;;;26.03;44.91;100548.31;4922793;29;20126;-89
2022/07/17 06:24:31;;;;;;;8.18;2.80;;;;;;;27.94;40.74;100544.16;4936531;29;20035;-89
2022/07/17 06:26:57;;;;;;;5.38;2.53;;;;;;;28.47;38.12;100539.47;4941817;29;20499;-88
2022/07/17 06:29:22;;;;;;;4.28;2.78;;;;;;;27.99;38.53;100543.69;4941676;29;20035;-89
2022/07/17 06:31:47;;;;;;;7.43;3.20;;;;;;;27.44;39.11;100539.56;4941864;29;20035;-89
2022/07/17 06:34:13;;;;;;;5.07;2.20;;;;;;;27.16;39.85;100548.75;4941752;29;20027;-89
2022/07/17 06:36:38;;;;;;;3.97;2.42;;;;;;;27.36;38.58;100544.88;4941438;29;20073;-89
2022/07/17 06:39:03;;;;;;;3.95;2.28;;;;;;;27.99;38.35;100535.66;4941607;29;20486;-88
2022/07/17 06:41:29;;;;;;;6.50;2.85;;;;;;;28.72;37.37;100549.19;4941533;29;20035;-88
2022/07/17 06:43:54;;;;;;;6.40;2.30;;;;;;;29.42;34.97;100545.13;4970018;28;20401;-87
2022/07/17 06:46:19;;;;;;;4.03;2.00;;;;;;;29.88;34.43;100539.94;4981170;28;20042;-87
2022/07/17 06:48:45;;;;;;;4.93;2.10;;;;;;;30.25;33.63;100537.38;4981154;28;20026;-87
2022/07/17 06:51:10;;;;;;;15.52;2.33;;;;;;;30.73;32.84;100548.84;4981535;28;20156;-88
2022/07/17 06:53:36;;;;;;;5.47;2.47;;;;;;;30.93;32.34;100557.25;4981286;28;20553;-86
2022/07/17 06:56:01;;;;;;;4.50;2.05;;;;;;;31.02;32.05;100558.84;4981540;28;20093;-87
2022/07/17 06:58:26;;;;;;;6.20;2.25;;;;;;;30.99;32.21;100555.69;4980948;28;20390;-87
2022/07/17 07:00:52;;;;;;;6.97;2.17;;;;;;;31.04;32.11;100566.72;4981198;28;20040;-88
2022/07/17 07:03:17;;;;;;;4.28;1.83;;;;;;;30.96;31.95;100566.81;4980984;28;20026;-88
2022/07/17 07:05:42;;;;;;;3.35;1.80;;;;;;;30.80;31.62;100565.09;4980573;28;20034;-87
2022/07/17 07:08:08;;;;;;;4.05;1.98;;;;;;;30.80;31.85;100560.56;4981291;28;20133;-87
2022/07/17 07:10:33;;;;;;;5.03;2.10;;;;;;;30.74;32.49;100563.97;4980880;28;20031;-89
2022/07/17 07:12:59;;;;;;;5.05;2.00;;;;;;;30.87;31.83;100566.03;4999164;28;20132;-86
2022/07/17 07:15:24;;;;;;;6.68;2.25;;;;;;;30.84;31.97;100561.00;4980580;28;20037;-84
2022/07/17 07:17:50;;;;;;;4.18;1.90;;;;;;;30.87;31.63;100559.81;4956784;28;20142;-83
2022/07/17 07:20:15;;;;;;;4.85;2.05;;;;;;;30.87;31.95;100557.97;4957175;29;20046;-84
2022/07/17 07:22:40;;;;;;;7.18;2.03;;;;;;;30.81;31.73;100561.41;4957112;29;20035;-85
2022/07/17 07:25:07;;;;;;;4.60;1.98;;;;;;;30.68;31.37;100534.25;4957170;29;20179;-85
2022/07/17 07:27:32;;;;;;;3.40;1.80;;;;;;;30.67;32.00;100564.81;4957199;29;20043;-89
2022/07/17 07:29:57;;;;;;;6.90;1.85;;;;;;;30.52;32.62;100554.84;4955767;28;20043;-89
2022/07/17 07:32:23;;;;;;;7.22;2.03;;;;;;;30.46;31.91;100552.03;4954139;29;20043;-89
2022/07/17 07:34:48;;;;;;;6.40;1.95;;;;;;;30.39;32.60;100559.16;4937891;29;20070;-88
2022/07/17 07:37:13;;;;;;;3.10;1.70;;;;;;;30.24;32.53;100548.31;4937865;29;20046;-89
2022/07/17 07:39:39;;;;;;;3.85;1.70;;;;;;;30.24;32.46;100559.91;4938257;29;20423;-88
2022/07/17 07:42:05;;;;;;;4.00;1.85;;;;;;;30.18;32.68;100560.63;4967266;29;20039;-85
2022/07/17 07:44:30;;;;;;;2.50;1.48;;;;;;;29.89;32.41;100529.03;4953627;28;20049;-89
2022/07/17 07:46:55;;;;;;;5.30;1.60;;;;;;;29.90;32.11;100545.97;4937844;29;20443;-89
2022/07/17 07:49:21;;;;;;;3.67;1.65;;;;;;;29.99;32.19;100543.06;4968201;28;20051;-88
2022/07/17 07:51:46;;;;;;;4.80;1.85;;;;;;;29.91;32.74;100566.44;4956816;28;20447;-88
2022/07/17 07:54:12;;;;;;;4.72;1.80;;;;;;;29.78;32.60;100561.63;4957226;28;20042;-88
2022/07/17 07:56:37;;;;;;;5.68;2.08;;;;;;;29.70;33.42;100554.44;4956719;28;20039;-88
2022/07/17 07:59:06;;;;;;;6.60;2.20;;;;;;;29.60;32.92;100558.34;4956888;28;20154;-88
2022/07/17 08:01:31;;;;;;;4.45;1.77;;;;;;;28.88;32.67;100560.94;4988039;28;20030;-87
2022/07/17 08:03:57;;;;;;;8.98;2.45;;;;;;;28.05;34.39;100559.09;4994949;28;20046;-88
2022/07/17 08:06:22;;;;;;;4.00;2.10;;;;;;;27.74;35.49;100558.81;4993792;28;20030;-88
2022/07/17 08:08:47;;;;;;;4.72;1.80;;;;;;;27.48;36.32;100543.59;4977444;28;20382;-88
2022/07/17 08:11:14;;;;;;;5.75;1.67;;;;;;;27.45;36.33;100569.84;4977337;28;20118;-88
2022/07/17 08:13:40;;;;;;;3.67;1.60;;;;;;;26.96;36.72;100562.28;4953298;29;20543;-89
2022/07/17 08:16:06;;;;;;;3.25;1.48;;;;;;;26.72;38.10;100565.59;4953371;29;20035;-88
2022/07/17 08:18:31;;;;;;;4.50;1.70;;;;;;;26.59;38.89;100576.69;4952767;29;20514;-88
2022/07/17 08:20:56;;;;;;;2.95;1.70;;;;;;;26.64;38.98;100567.38;4953404;29;20035;-88
2022/07/17 08:23:22;;;;;;;6.18;1.98;;;;;;;26.58;38.64;100568.78;4953611;29;20039;-88
2022/07/17 08:25:47;;;;;;;5.97;2.05;;;;;;;26.38;38.59;100582.28;4953168;29;20475;-87
2022/07/17 08:28:13;;;;;;;4.63;1.75;;;;;;;25.83;38.50;100560.97;4952995;29;20499;-87
2022/07/17 08:30:39;;;;;;;6.38;2.00;;;;;;;25.32;39.29;100575.53;4953540;29;20035;-87
2022/07/17 08:33:06;;;;;;;3.15;1.65;;;;;;;25.04;40.88;100576.44;4953093;29;20426;-87
2022/07/17 08:35:32;;;;;;;5.78;1.73;;;;;;;24.76;41.24;100581.63;4952824;29;20064;-86
2022/07/17 08:38:00;;;;;;;4.82;1.80;;;;;;;24.33;40.53;100585.47;4952933;29;20038;-87
2022/07/17 08:40:29;;;;;;;4.53;1.73;;;;;;;24.13;42.08;100589.91;4952856;29;20035;-87
2022/07/17 08:42:56;;;;;;;5.43;1.70;;;;;;;23.98;41.25;100580.63;4914642;29;20040;-87
2022/07/17 08:45:22;;;;;;;3.20;1.50;;;;;;;23.85;41.99;100583.53;4929595;29;20044;-87
2022/07/17 08:47:50;;;;;;;4.35;1.85;;;;;;;23.69;42.86;100585.00;4914374;29;20495;-87
2022/07/17 08:50:20;;;;;;;6.88;1.85;;;;;;;23.53;43.17;100575.63;4914501;29;20504;-86
2022/07/17 08:52:45;;;;;;;5.53;1.85;;;;;;;23.40;43.48;100581.16;4898555;29;20106;-86
2022/07/17 08:55:13;;;;;;;4.00;1.65;;;;;;;23.20;43.71;100581.19;4898689;29;20114;-86
2022/07/17 08:57:41;;;;;;;4.40;1.88;;;;;;;23.17;44.05;100608.84;4914131;29;20071;-87
2022/07/17 09:00:10;;;;;;;4.32;1.80;;;;;;;23.14;44.76;100604.66;4914256;29;20039;-90
2022/07/17 09:02:37;;;;;;;4.32;2.00;;;;;;;23.08;43.87;100599.84;4915379;29;20044;-88
2022/07/17 09:05:03;;;;;;;5.45;1.88;;;;;;;22.87;43.40;100596.28;4905801;29;20055;-88
2022/07/17 09:07:28;;;;;;;8.18;1.77;;;;;;;22.66;45.06;100590.94;4935884;28;20104;-87
2022/07/17 09:09:54;;;;;;;5.22;1.70;;;;;;;22.53;43.94;100611.50;4898612;29;20028;-87
2022/07/17 09:12:27;;;;;;;3.45;1.70;;;;;;;22.42;43.62;100613.22;4898446;29;20032;-88
2022/07/17 09:14:53;;;;;;;3.92;1.75;;;;;;;22.27;43.67;100608.31;4948373;29;20043;-88
2022/07/17 09:17:19;;;;;;;12.23;2.20;;;;;;;22.28;44.14;100600.19;4952046;29;20138;-87
2022/07/17 09:19:46;;;;;;;3.92;1.90;;;;;;;21.99;44.12;100556.56;4971532;28;20482;-88
2022/07/17 09:22:15;;;;;;;2.30;1.20;;;;;;;22.22;45.31;100611.31;4975863;28;20088;-88
2022/07/17 09:24:55;;;;;;;7.32;1.52;;;;;;;22.11;43.75;100595.38;4991813;28;20030;-88
2022/07/17 09:27:23;;;;;;;6.53;1.93;;;;;;;21.84;43.35;100580.69;4975962;28;20521;-88
2022/07/17 09:30:17;;;;;;;4.82;1.65;;;;;;;22.00;43.62;100606.03;4991461;28;20125;-87
2022/07/17 09:32:42;;;;;;;4.30;1.90;;;;;;;22.02;43.78;100604.91;4897639;29;20089;-90
2022/07/17 09:35:10;;;;;;;6.15;2.10;;;;;;;22.11;43.63;100595.38;4897861;29;20120;-89
2022/07/17 09:37:37;;;;;;;3.03;1.75;;;;;;;22.21;44.40;100590.22;4897532;29;20044;-88
2022/07/17 09:40:09;;;;;;;5.20;1.70;;;;;;;22.08;43.91;100554.03;4913548;29;20164;-87
2022/07/17 09:42:35;;;;;;;4.80;2.20;;;;;;;22.34;44.53;100596.22;4897275;29;20036;-88
2022/07/17 09:45:04;;;;;;;4.47;1.60;;;;;;;22.44;44.26;100591.00;4897951;29;20432;-88
2022/07/17 09:47:31;;;;;;;3.10;1.85;;;;;;;22.44;44.44;100575.09;4897576;29;20032;-87
2022/07/17 09:49:59;;;;;;;3.50;1.70;;;;;;;22.39;44.30;100576.31;4897110;29;20048;-86
2022/07/17 09:52:29;;;;;;;5.40;2.13;;;;;;;22.43;45.05;100592.81;4913638;29;20036;-87
2022/07/17 09:54:56;;;;;;;3.78;1.65;;;;;;;22.45;46.21;100584.72;4912605;29;20440;-87
2022/07/17 09:57:30;;;;;;;5.75;1.98;;;;;;;22.42;45.85;100569.91;4913743;29;20151;-87
2022/07/17 10:00:00;;;;;;;5.15;1.98;;;;;;;22.49;44.85;100570.25;4894196;29;20198;-87
2022/07/17 10:02:26;;;;;;;3.53;1.80;;;;;;;22.53;45.46;100571.66;4878829;29;20096;-88
2022/07/17 10:04:52;;;;;;;3.92;1.95;;;;;;;22.62;44.79;100578.88;4878588;29;20508;-88
2022/07/17 10:07:18;;;;;;;4.07;1.77;;;;;;;22.69;44.41;100576.56;4878772;29;20059;-89
2022/07/17 10:09:45;;;;;;;3.50;1.92;;;;;;;22.67;43.97;100580.22;4901408;29;20047;-87
2022/07/17 10:12:10;;;;;;;4.00;1.90;;;;;;;22.59;44.43;100563.22;4916406;29;20032;-87
2022/07/17 10:14:38;;;;;;;4.97;1.77;;;;;;;22.58;44.52;100564.16;4916055;29;20700;-88
2022/07/17 10:17:13;;;;;;;4.10;1.60;;;;;;;22.70;45.44;100579.09;4916244;29;20058;-87
2022/07/17 10:19:49;;;;;;;6.35;2.40;;;;;;;22.74;43.20;100574.38;4947752;29;20573;-87
2022/07/17 10:22:15;;;;;;;4.95;1.85;;;;;;;22.67;41.19;100564.28;4932275;29;20040;-87
2022/07/17 10:24:49;;;;;;;4.07;1.80;;;;;;;22.70;41.27;100572.94;4916349;29;20046;-89
2022/07/17 10:27:19;;;;;;;2.80;1.67;;;;;;;22.51;41.77;100560.34;4916487;29;20035;-87
2022/07/17 10:29:44;;;;;;;6.47;2.28;;;;;;;22.51;41.79;100565.66;4916350;28;20038;-88
2022/07/17 10:32:19;;;;;;;2.17;1.40;;;;;;;22.57;42.92;100575.75;4956022;28;20027;-88
2022/07/17 10:34:52;;;;;;;3.70;1.98;;;;;;;22.61;42.92;100567.41;4955423;28;20554;-87
2022/07/17 10:37:25;;;;;;;3.08;1.95;;;;;;;22.67;42.72;100580.22;4951091;29;20035;-88
2022/07/17 10:40:15;;;;;;;3.35;1.75;;;;;;;22.68;42.42;100578.38;4950907;29;20394;-88
2022/07/17 10:42:44;;;;;;;1.92;1.50;;;;;;;22.74;42.28;100585.00;4950941;29;20122;-88
2022/07/17 10:45:12;;;;;;;4.75;1.80;;;;;;;22.74;43.04;100585.00;4951175;29;20050;-87
2022/07/17 10:47:56;;;;;;;3.58;1.80;;;;;;;22.75;43.25;100594.63;4950929;29;20039;-88
2022/07/17 10:50:43;;;;;;;4.00;1.60;;;;;;;22.72;42.67;100585.13;4964225;28;20052;-87
2022/07/17 10:53:13;;;;;;;2.47;1.70;;;;;;;22.67;43.51;100566.94;4951363;29;20047;-88
2022/07/17 10:55:41;;;;;;;3.08;1.83;;;;;;;22.67;43.37;100576.72;4951211;29;20027;-88
2022/07/17 10:58:17;;;;;;;4.38;1.98;;;;;;;22.67;42.22;100584.69;4935661;29;20043;-87
2022/07/17 11:00:42;;;;;;;3.15;1.80;;;;;;;22.48;42.03;100560.59;4950739;29;20066;-88
2022/07/17 11:03:09;;;;;;;3.85;1.80;;;;;;;22.44;42.75;100572.44;4935244;29;20082;-89
2022/07/17 11:05:35;;;;;;;2.95;1.65;;;;;;;22.45;42.47;100568.81;4951603;28;20447;-89
2022/07/17 11:08:01;;;;;;;4.85;1.60;;;;;;;22.48;43.87;100565.91;4964064;28;20117;-88
2022/07/17 11:10:28;;;;;;;4.07;1.75;;;;;;;22.55;44.21;100575.91;4971185;28;20018;-93
2022/07/17 11:12:55;;;;;;;3.15;1.58;;;;;;;22.64;44.53;100563.69;4980416;28;20088;-90
2022/07/17 11:15:21;;;;;;;3.65;1.65;;;;;;;22.73;43.47;100568.22;4976909;28;20117;-92
2022/07/17 11:17:48;;;;;;;3.67;1.70;;;;;;;22.65;43.88;100547.59;4960044;28;20069;-91
2022/07/17 11:20:16;;;;;;;3.33;1.98;;;;;;;22.70;43.12;100559.66;4961006;28;20076;-92